Ruidoso, NM (88345)

9:42 PM MST on December 02, 2016 (GMT -0700)
The Beer Garden | | Change Station
Active Advisory: Winter Weather Advisory

Elev 6745 ft 33.34 °N, 105.67 °W | Updated 7 seconds ago

Overcast
Overcast
31.3 °F
Feels Like 31 °F
N
0.0
Wind Variable Wind from North
Gusts 0.0 mph

Today
High -- | Low -- °F
--% Chance of Precip.
Yesterday
High -- | Low -- °F
Precip. -- in
Pressure 30.08 in
Visibility 10.0 miles
Clouds Overcast 1100 ft
Windchill 31 °F
Dew Point 21 °F
Humidity 65%
Rainfall 0.00 in
Snow Depth Not available.
6:49 AM 4:54 PM
Waxing Crescent, 12% visible
METAR KSRR 030435Z AUTO 15010KT 10SM OVC011 M02/M04 A3008 RMK AO2
Pressure 30.08 in
Visibility 10.0 miles
Clouds Overcast 1100 ft
Windchill 31 °F
Dew Point 21 °F
Humidity 65%
Rainfall 0.00 in
Snow Depth Not available.
6:49 AM 4:54 PM
Waxing Crescent, 12% visible
METAR KSRR 030435Z AUTO 15010KT 10SM OVC011 M02/M04 A3008 RMK AO2

10-Day Weather Forecast

Almanac

Astronomy

Dec. 02, 2016 Rise Set
Actual Time
Civil Twilight
Nautical Twilight
Astronomical Twilight
Moon
Length of Visible Light
Length of Day
Tomorrow will be .
, % of the Moon is Illuminated

Today's Extremes

State Highs State Lows

Community

WunderPhotos

Upload Photos

1,955,411 photos uploaded!

WunderBlog® & News

Nearby

Air Quality

  Air Quality AQ Index Pollutant
Not available.

Snow Depth

Station Depth Elevation

Earthquake Activity

City Distance Mag. Time & Date
Minimum magnitude displayed is 2.5.

Coastal Water Temperatures

Place Temperature

Stations

Nearby Weather Stations

Station Location Temp. Windchill Dew Point Humidity Wind Precip. Elev Updated Type
                   

Watches & Warnings

Winter Weather Advisory
Issued: 8:03 PM MST Dec. 2, 2016 – National Weather Service

... Winter Weather Advisory remains in effect from midnight
tonight to 9 am MST Sunday...

* snow accumulations... four to eight inches over the south
central mountains with locally greater amounts possible over
the peaks. Two to four inches over eastern Lincoln and
southwest Chaves counties.

* Timing... periods of snow will become moderate to occasionally
heavy after midnight tonight... continuing intermittently
Saturday and Saturday night before tapering off Sunday.

* Winds... northeast to east 10 to 20 mph... gusts to 30 mph.

* Snow levels... snow levels may rise to around 6500 feet
Saturday afternoon... but will lower again Saturday night.

* Local impacts... snow will reduce visibility and accumulate on
roads... creating treacherous conditions for travelers through
south central New Mexico including Highway 70 from Ruidoso to
the Chaves County line.

Precautionary/preparedness actions...

A Winter Weather Advisory for snow means that periods of snow
will cause primarily travel difficulties. Be prepared for snow
covered roads and limited visibilities.